Time;durP1;ratioP1;P1;durP2;ratioP2;P2;SDS_P1;SDS_P2;PMS_P1;PMS_P2;Temp;Humidity;BMP_temperature;BMP_pressure;BME280_temperature;BME280_humidity;BME280_pressure;Samples;Min_cycle;Max_cycle;Signal;HPM_P1;HPM_P2
2022/03/06 00:00:48;;;;;;;31.27;16.42;;;;;;;5.01;52.12;102223.22;6201761;23;20025;-67
2022/03/06 00:03:13;;;;;;;31.00;15.88;;;;;;;4.93;52.30;102214.06;6199505;23;20028;-66
2022/03/06 00:05:39;;;;;;;28.35;15.60;;;;;;;4.99;52.50;102232.75;6200020;23;20062;-66
2022/03/06 00:08:06;;;;;;;31.17;16.30;;;;;;;4.92;52.82;102235.81;6198577;23;20494;-67
2022/03/06 00:10:31;;;;;;;34.22;16.48;;;;;;;4.87;52.69;102238.19;6199224;23;20049;-67
2022/03/06 00:12:57;;;;;;;30.42;15.63;;;;;;;4.89;52.19;102238.28;6199293;23;20327;-67
2022/03/06 00:15:23;;;;;;;28.67;15.20;;;;;;;4.92;52.81;102239.34;6200164;23;20000;-67
2022/03/06 00:17:49;;;;;;;31.23;16.75;;;;;;;4.88;51.91;102242.63;6199799;23;20008;-67
2022/03/06 00:20:15;;;;;;;31.27;16.50;;;;;;;4.80;52.27;102227.28;6202002;23;20032;-66
2022/03/06 00:22:41;;;;;;;34.78;17.90;;;;;;;4.74;52.97;102233.06;6201467;23;20001;-67
2022/03/06 00:25:07;;;;;;;29.40;15.90;;;;;;;4.64;52.81;102236.00;6200131;23;20005;-67
2022/03/06 00:27:33;;;;;;;30.45;15.88;;;;;;;4.60;53.63;102242.78;6199361;23;20092;-67
2022/03/06 00:30:00;;;;;;;32.10;15.80;;;;;;;4.53;53.72;102237.97;6199001;23;20094;-67
2022/03/06 00:32:25;;;;;;;35.75;16.88;;;;;;;4.48;52.93;102237.72;6199779;23;20005;-66
2022/03/06 00:34:51;;;;;;;30.50;15.77;;;;;;;4.55;52.60;102239.00;6198889;23;20088;-68
2022/03/06 00:37:16;;;;;;;33.00;15.55;;;;;;;4.52;53.50;102242.31;6199045;23;20001;-68
2022/03/06 00:39:43;;;;;;;30.77;15.88;;;;;;;4.51;53.53;102251.00;6198500;23;20004;-66
2022/03/06 00:42:09;;;;;;;30.85;15.85;;;;;;;4.55;52.83;102245.94;6199411;23;20598;-67
2022/03/06 00:44:35;;;;;;;31.98;16.75;;;;;;;4.48;53.42;102250.81;6198723;23;20032;-67
2022/03/06 00:47:00;;;;;;;32.95;16.00;;;;;;;4.45;53.16;102260.19;6199646;23;20024;-67
2022/03/06 00:49:26;;;;;;;35.55;16.52;;;;;;;4.38;53.54;102258.94;6198840;23;20197;-67
2022/03/06 00:51:51;;;;;;;55.25;18.25;;;;;;;4.36;53.48;102265.78;6197163;23;20227;-67
2022/03/06 00:54:17;;;;;;;32.72;15.85;;;;;;;4.27;54.18;102265.25;6197530;23;20005;-67
2022/03/06 00:56:43;;;;;;;33.65;16.05;;;;;;;4.24;54.15;102271.22;6197569;23;20004;-67
2022/03/06 00:59:08;;;;;;;31.80;15.77;;;;;;;4.28;53.68;102261.81;6196168;23;20210;-68
2022/03/06 01:01:36;;;;;;;32.25;16.13;;;;;;;4.21;53.89;102267.53;6197539;23;20035;-67
2022/03/06 01:04:02;;;;;;;33.40;16.40;;;;;;;4.19;54.25;102269.13;6197703;23;20240;-67
2022/03/06 01:06:28;;;;;;;36.90;17.27;;;;;;;4.22;53.87;102269.31;6197225;23;20036;-67
2022/03/06 01:08:53;;;;;;;30.85;15.98;;;;;;;4.22;53.75;102269.31;6197229;23;20063;-66
2022/03/06 01:11:20;;;;;;;33.67;18.40;;;;;;;4.17;53.99;102271.66;6196237;23;20517;-68
2022/03/06 01:13:46;;;;;;;34.38;17.00;;;;;;;4.17;54.32;102270.78;6197580;23;20000;-68
2022/03/06 01:16:11;;;;;;;32.75;16.35;;;;;;;4.09;55.03;102280.78;6198058;23;20035;-67
2022/03/06 01:18:37;;;;;;;33.45;15.95;;;;;;;4.09;54.25;102280.78;6198452;23;20466;-67
2022/03/06 01:21:02;;;;;;;31.42;15.73;;;;;;;4.09;55.13;102279.88;6197701;23;20190;-67
2022/03/06 01:23:28;;;;;;;27.67;15.10;;;;;;;4.05;54.73;102281.41;6198879;23;20004;-67
2022/03/06 01:25:54;;;;;;;30.27;15.82;;;;;;;4.01;54.85;102276.78;6200679;23;20024;-67
2022/03/06 01:28:20;;;;;;;30.10;15.82;;;;;;;3.99;54.72;102281.94;6197956;23;20290;-67
2022/03/06 01:30:45;;;;;;;33.17;15.80;;;;;;;3.94;55.34;102277.22;6196886;23;20011;-66
2022/03/06 01:33:11;;;;;;;32.55;17.02;;;;;;;3.90;55.10;102283.09;6198996;23;20074;-67
2022/03/06 01:35:41;;;;;;;33.25;16.02;;;;;;;3.83;55.59;102283.53;6198249;23;20383;-68
2022/03/06 01:38:07;;;;;;;30.98;16.15;;;;;;;3.77;55.68;102281.44;6198430;23;20000;-67
2022/03/06 01:40:32;;;;;;;33.47;16.92;;;;;;;3.70;55.73;102288.00;6196353;23;20390;-68
2022/03/06 01:42:57;;;;;;;32.70;16.65;;;;;;;3.66;55.82;102283.38;6197040;23;20462;-67
2022/03/06 01:45:24;;;;;;;35.17;15.75;;;;;;;3.72;55.51;102294.22;6198637;23;20108;-66
2022/03/06 01:47:52;;;;;;;33.33;16.63;;;;;;;3.66;56.11;102293.84;6197617;23;20032;-68
2022/03/06 01:50:19;;;;;;;32.20;15.45;;;;;;;3.64;55.70;102289.31;6199382;23;20008;-69
2022/03/06 01:52:48;;;;;;;31.42;16.33;;;;;;;3.57;56.27;102292.38;6197840;23;20252;-67
2022/03/06 01:55:15;;;;;;;35.80;17.17;;;;;;;3.54;55.84;102293.09;6198121;23;20000;-68
2022/03/06 01:57:42;;;;;;;33.70;16.63;;;;;;;3.58;56.22;102299.41;6198306;23;20382;-67
2022/03/06 02:00:13;;;;;;;35.67;16.80;;;;;;;3.49;56.32;102298.03;6197531;23;20435;-67
2022/03/06 02:02:39;;;;;;;30.92;15.95;;;;;;;3.49;56.20;102298.03;6197358;23;20028;-68
2022/03/06 02:05:06;;;;;;;31.23;16.73;;;;;;;3.44;56.65;102294.22;6200232;23;20000;-67
2022/03/06 02:07:31;;;;;;;31.60;16.25;;;;;;;3.48;56.20;102292.72;6196440;23;20095;-67
2022/03/06 02:09:58;;;;;;;32.25;16.38;;;;;;;3.46;56.32;102292.59;6198402;23;20024;-66
2022/03/06 02:12:24;;;;;;;31.95;16.20;;;;;;;3.43;56.53;102295.03;6196827;23;20013;-67
2022/03/06 02:14:55;;;;;;;32.10;16.40;;;;;;;3.43;56.64;102295.03;6198677;23;20001;-66
2022/03/06 02:17:21;;;;;;;28.75;16.15;;;;;;;3.40;56.82;102296.56;6198451;23;20016;-67
2022/03/06 02:19:53;;;;;;;33.78;15.77;;;;;;;3.38;56.94;102295.53;6197788;23;20000;-67
2022/03/06 02:22:20;;;;;;;31.20;16.60;;;;;;;3.37;56.79;102298.97;6197731;23;20036;-67
2022/03/06 02:24:46;;;;;;;33.92;16.55;;;;;;;3.34;56.79;102298.75;6197503;23;20240;-66
2022/03/06 02:27:12;;;;;;;32.72;16.90;;;;;;;3.36;56.77;102302.38;6197608;23;20008;-66
2022/03/06 02:29:41;;;;;;;31.20;16.60;;;;;;;3.43;56.88;102299.38;6197763;23;20435;-68
2022/03/06 02:32:11;;;;;;;31.13;16.25;;;;;;;3.40;56.86;102304.38;6195490;23;20004;-67
2022/03/06 02:34:38;;;;;;;28.05;14.88;;;;;;;3.39;56.82;102307.81;6198260;23;20005;-67
2022/03/06 02:37:04;;;;;;;31.58;16.10;;;;;;;3.41;56.66;102314.03;6197917;23;20550;-66
2022/03/06 02:39:29;;;;;;;32.88;15.93;;;;;;;3.41;56.80;102309.69;6195938;23;20028;-67
2022/03/06 02:41:55;;;;;;;28.15;14.85;;;;;;;3.41;56.56;102309.69;6198714;23;20036;-67
2022/03/06 02:44:21;;;;;;;32.70;15.73;;;;;;;3.38;56.95;102317.34;6198303;23;20027;-67
2022/03/06 02:46:47;;;;;;;31.92;15.02;;;;;;;3.19;56.72;102304.81;6196089;23;20028;-67
2022/03/06 02:49:13;;;;;;;29.10;15.82;;;;;;;3.28;57.25;102314.06;6196031;23;20036;-67
2022/03/06 02:51:52;;;;;;;27.98;14.50;;;;;;;3.23;57.24;102313.75;6195417;23;20390;-66
2022/03/06 02:54:20;;;;;;;27.75;14.93;;;;;;;3.08;57.69;102308.44;6195682;23;20004;-67
2022/03/06 02:56:47;;;;;;;28.55;14.75;;;;;;;2.99;58.05;102324.41;6196935;23;20592;-65
2022/03/06 02:59:13;;;;;;;27.50;14.00;;;;;;;2.96;58.20;102318.13;6195447;23;20012;-66
2022/03/06 03:01:42;;;;;;;28.90;14.35;;;;;;;2.91;58.51;102312.59;6198178;23;20059;-67
2022/03/06 03:04:08;;;;;;;27.50;14.73;;;;;;;2.86;58.88;102315.69;6198715;23;20099;-67
2022/03/06 03:06:34;;;;;;;30.10;14.25;;;;;;;2.83;58.93;102316.41;6197981;23;20474;-67
2022/03/06 03:08:59;;;;;;;28.85;14.35;;;;;;;2.81;58.87;102327.56;6199297;23;20012;-66
2022/03/06 03:11:25;;;;;;;27.73;14.48;;;;;;;2.75;59.60;102323.75;6198016;23;20091;-67
2022/03/06 03:13:50;;;;;;;26.58;13.73;;;;;;;2.66;59.83;102323.13;6198795;23;20009;-67
2022/03/06 03:16:16;;;;;;;27.13;14.55;;;;;;;2.57;60.04;102326.81;6199592;23;20000;-67
2022/03/06 03:18:41;;;;;;;27.15;13.57;;;;;;;2.58;59.89;102321.72;6199871;23;20012;-67
2022/03/06 03:21:06;;;;;;;27.25;13.68;;;;;;;2.57;60.26;102332.97;6198917;23;20004;-67
2022/03/06 03:23:32;;;;;;;25.67;13.45;;;;;;;2.54;60.38;102326.63;6199633;23;20530;-68
2022/03/06 03:25:57;;;;;;;25.83;13.95;;;;;;;2.49;60.45;102324.63;6199232;23;20011;-68
2022/03/06 03:28:23;;;;;;;24.35;13.00;;;;;;;2.51;60.64;102323.00;6198587;23;20074;-67
2022/03/06 03:30:51;;;;;;;25.38;13.68;;;;;;;2.49;60.62;102323.72;6198909;23;20023;-67
2022/03/06 03:33:17;;;;;;;25.95;13.27;;;;;;;2.42;60.95;102331.94;6197798;23;20063;-67
2022/03/06 03:35:43;;;;;;;25.95;14.02;;;;;;;2.35;61.14;102317.53;6199562;23;20076;-67
2022/03/06 03:38:08;;;;;;;25.00;13.88;;;;;;;2.38;61.05;102330.81;6200354;23;20423;-67
2022/03/06 03:40:33;;;;;;;25.25;14.18;;;;;;;2.38;60.95;102328.19;6198728;23;20459;-67
2022/03/06 03:42:59;;;;;;;27.58;14.43;;;;;;;2.32;61.07;102330.41;6198462;23;20338;-68
2022/03/06 03:45:24;;;;;;;24.45;13.07;;;;;;;2.27;61.70;102334.41;6198752;23;20087;-66
2022/03/06 03:47:50;;;;;;;26.80;14.35;;;;;;;2.24;62.08;102327.28;6199218;23;20079;-67
2022/03/06 03:50:15;;;;;;;28.38;13.25;;;;;;;2.19;61.93;102326.06;6199938;23;20009;-67
2022/03/06 03:52:40;;;;;;;24.17;12.80;;;;;;;2.18;61.98;102333.75;6199694;23;20010;-67
2022/03/06 03:55:06;;;;;;;27.50;14.40;;;;;;;2.16;61.93;102328.44;6199890;23;20557;-67
2022/03/06 03:57:31;;;;;;;27.13;13.77;;;;;;;2.21;61.99;102333.97;6198802;23;20008;-67
2022/03/06 03:59:57;;;;;;;30.60;14.07;;;;;;;2.18;62.20;102336.38;6198967;23;20444;-67
2022/03/06 04:02:23;;;;;;;25.77;13.50;;;;;;;2.19;62.15;102332.97;6197086;23;20007;-67
2022/03/06 04:04:49;;;;;;;23.63;13.32;;;;;;;2.17;62.28;102338.06;6198789;23;20323;-67
2022/03/06 04:07:15;;;;;;;27.73;12.88;;;;;;;2.18;62.16;102341.59;6199059;23;20471;-68
2022/03/06 04:09:40;;;;;;;24.13;13.02;;;;;;;2.14;62.15;102340.50;6199398;23;20577;-67
2022/03/06 04:12:06;;;;;;;26.50;13.38;;;;;;;2.11;62.28;102349.81;6198900;23;20008;-66
2022/03/06 04:14:31;;;;;;;25.30;13.57;;;;;;;2.09;62.04;102341.84;6198259;23;20176;-67
2022/03/06 04:16:57;;;;;;;24.33;13.50;;;;;;;2.05;62.10;102344.16;6198948;23;20005;-67
2022/03/06 04:19:22;;;;;;;23.55;12.95;;;;;;;2.07;62.28;102351.28;6200556;23;20012;-66
2022/03/06 04:21:47;;;;;;;25.55;13.23;;;;;;;2.15;62.20;102360.53;6199164;23;20477;-67
2022/03/06 04:24:13;;;;;;;26.05;13.15;;;;;;;2.19;61.43;102364.28;6199815;23;20066;-67
2022/03/06 04:26:39;;;;;;;27.65;13.02;;;;;;;2.15;62.04;102368.38;6198933;23;20006;-67
2022/03/06 04:29:04;;;;;;;24.92;12.60;;;;;;;2.13;62.07;102356.91;6199635;23;20058;-67
2022/03/06 04:31:30;;;;;;;24.65;13.63;;;;;;;2.04;62.57;102369.31;6199164;23;20455;-67
2022/03/06 04:33:55;;;;;;;24.50;13.68;;;;;;;1.94;62.85;102361.66;6199081;23;20412;-67
2022/03/06 04:36:21;;;;;;;24.10;13.40;;;;;;;1.99;62.11;102370.69;6198125;23;20411;-67
2022/03/06 04:38:46;;;;;;;23.25;12.77;;;;;;;1.91;63.14;102371.88;6199072;23;20420;-67
2022/03/06 04:41:12;;;;;;;26.33;13.55;;;;;;;1.84;62.62;102377.44;6198565;23;20000;-67
2022/03/06 04:43:38;;;;;;;27.30;14.13;;;;;;;1.74;62.92;102373.28;6198733;23;20009;-67
2022/03/06 04:46:03;;;;;;;28.13;13.75;;;;;;;1.68;63.16;102368.56;6198267;23;20005;-67
2022/03/06 04:48:29;;;;;;;24.15;13.60;;;;;;;1.69;63.75;102370.34;6198098;23;20099;-67
2022/03/06 04:50:54;;;;;;;23.08;13.45;;;;;;;1.70;63.11;102379.97;6199304;23;20004;-66
2022/03/06 04:53:20;;;;;;;22.98;13.68;;;;;;;1.67;63.18;102384.06;6198132;23;20028;-66
2022/03/06 04:55:45;;;;;;;25.13;13.05;;;;;;;1.57;63.75;102387.72;6198869;23;20004;-67
2022/03/06 04:58:10;;;;;;;23.02;13.40;;;;;;;1.57;63.59;102390.31;6197826;23;20011;-67
2022/03/06 05:00:36;;;;;;;22.00;13.23;;;;;;;1.55;64.44;102393.63;6197852;23;20035;-68
2022/03/06 05:03:01;;;;;;;26.35;13.63;;;;;;;1.52;64.96;102389.09;6198136;23;20423;-67
2022/03/06 05:05:27;;;;;;;28.25;14.98;;;;;;;1.50;63.82;102401.13;6198063;23;20060;-67
2022/03/06 05:07:52;;;;;;;29.42;15.25;;;;;;;1.47;63.84;102403.50;6195547;23;20068;-67
2022/03/06 05:10:17;;;;;;;27.30;14.80;;;;;;;1.44;64.25;102404.16;6198685;23;20012;-66
2022/03/06 05:12:43;;;;;;;26.20;14.10;;;;;;;1.44;64.33;102414.56;6198511;23;20011;-67
2022/03/06 05:15:11;;;;;;;27.67;14.23;;;;;;;1.46;64.45;102419.91;6199561;23;20005;-67
2022/03/06 05:17:39;;;;;;;27.52;15.10;;;;;;;1.37;64.39;102404.53;6199086;23;20005;-67
2022/03/06 05:20:05;;;;;;;25.50;13.60;;;;;;;1.35;64.25;102415.63;6199213;23;20012;-67
2022/03/06 05:22:31;;;;;;;23.42;12.98;;;;;;;1.24;64.58;102407.94;6198053;23;20043;-67
2022/03/06 05:24:58;;;;;;;24.00;14.10;;;;;;;1.31;64.78;102422.28;6198511;23;20525;-66
2022/03/06 05:27:23;;;;;;;26.67;14.45;;;;;;;1.31;64.73;102419.69;6197699;23;20132;-66
2022/03/06 05:29:49;;;;;;;26.33;13.75;;;;;;;1.27;65.05;102421.97;6197079;23;20067;-66
2022/03/06 05:32:14;;;;;;;26.63;14.23;;;;;;;1.29;64.69;102418.69;6197599;23;20124;-67
2022/03/06 05:34:39;;;;;;;25.30;14.05;;;;;;;1.39;64.78;102420.25;6198908;23;20001;-66
2022/03/06 05:37:05;;;;;;;25.70;14.00;;;;;;;1.37;64.57;102420.16;6197771;23;20005;-66
2022/03/06 05:39:30;;;;;;;27.98;14.32;;;;;;;1.33;64.69;102420.72;6198837;23;20065;-66
2022/03/06 05:41:55;;;;;;;26.38;14.00;;;;;;;1.35;64.33;102419.13;6198915;23;20008;-67
2022/03/06 05:44:21;;;;;;;25.20;13.05;;;;;;;1.33;64.39;102438.00;6197273;23;20450;-66
2022/03/06 05:46:47;;;;;;;23.42;13.60;;;;;;;1.30;64.49;102432.59;6198908;23;20401;-66
2022/03/06 05:49:15;;;;;;;25.52;13.60;;;;;;;1.35;63.95;102447.75;6196631;23;20008;-67
2022/03/06 05:51:42;;;;;;;26.38;13.45;;;;;;;1.32;64.52;102441.41;6198990;23;20427;-67
2022/03/06 05:54:08;;;;;;;25.13;13.88;;;;;;;1.27;64.59;102437.59;6197070;23;20008;-67
2022/03/06 05:56:34;;;;;;;25.42;13.75;;;;;;;1.22;64.15;102435.53;6198160;23;20084;-67
2022/03/06 05:59:00;;;;;;;23.30;13.77;;;;;;;1.30;64.00;102448.22;6198496;23;20007;-66
2022/03/06 06:01:25;;;;;;;25.63;13.73;;;;;;;1.31;63.76;102444.81;6198324;23;20005;-67
2022/03/06 06:03:51;;;;;;;24.15;12.95;;;;;;;1.25;64.02;102435.78;6197459;23;20048;-66
2022/03/06 06:06:16;;;;;;;23.48;13.30;;;;;;;1.35;64.04;102457.28;6199443;23;20008;-67
2022/03/06 06:08:42;;;;;;;25.77;14.15;;;;;;;1.29;63.99;102454.25;6196966;23;20508;-67
2022/03/06 06:11:07;;;;;;;25.83;13.90;;;;;;;1.29;64.04;102464.66;6197240;23;20469;-67
2022/03/06 06:13:33;;;;;;;26.83;13.52;;;;;;;1.31;64.39;102468.25;6196455;23;20450;-66
2022/03/06 06:15:59;;;;;;;28.00;13.65;;;;;;;1.29;64.17;102456.84;6197279;23;20011;-67
2022/03/06 06:18:27;;;;;;;22.30;13.25;;;;;;;1.34;63.28;102469.41;6197771;23;20110;-67
2022/03/06 06:20:53;;;;;;;25.10;13.43;;;;;;;1.40;63.83;102468.94;6197923;23;20069;-67
2022/03/06 06:23:19;;;;;;;27.48;14.05;;;;;;;1.43;63.64;102472.69;6198520;23;20000;-67
2022/03/06 06:25:45;;;;;;;26.02;12.88;;;;;;;1.48;63.33;102473.00;6197445;23;20054;-67
2022/03/06 06:28:10;;;;;;;25.40;13.63;;;;;;;1.53;63.24;102479.47;6196546;23;20652;-67
2022/03/06 06:30:37;;;;;;;23.27;13.68;;;;;;;1.53;63.49;102475.94;6196659;23;20412;-66
2022/03/06 06:33:02;;;;;;;22.13;12.88;;;;;;;1.58;62.77;102485.00;6197481;23;20084;-67
2022/03/06 06:35:28;;;;;;;20.90;12.68;;;;;;;1.60;62.78;102481.72;6198232;23;20036;-66
2022/03/06 06:37:53;;;;;;;22.25;12.75;;;;;;;1.66;62.55;102478.66;6196312;23;20001;-66
2022/03/06 06:40:18;;;;;;;21.52;12.95;;;;;;;1.74;62.26;102480.13;6198402;23;20231;-67
2022/03/06 06:42:44;;;;;;;24.15;13.20;;;;;;;1.81;62.42;102482.38;6197197;23;20231;-66
2022/03/06 06:45:10;;;;;;;21.83;12.52;;;;;;;1.82;62.30;102481.59;6195875;23;20005;-67
2022/03/06 06:47:35;;;;;;;19.42;12.15;;;;;;;1.86;62.20;102491.44;6195777;23;20004;-66
2022/03/06 06:50:00;;;;;;;20.85;12.35;;;;;;;1.81;61.77;102479.78;6195588;23;20008;-66
2022/03/06 06:52:26;;;;;;;20.63;12.52;;;;;;;1.87;62.40;102494.94;6197005;23;20013;-67
2022/03/06 06:54:51;;;;;;;20.92;13.35;;;;;;;1.90;61.72;102489.97;6196939;23;20032;-66
2022/03/06 06:57:17;;;;;;;21.50;12.98;;;;;;;1.98;61.92;102488.81;6197235;23;20008;-67
2022/03/06 06:59:42;;;;;;;21.65;12.18;;;;;;;2.11;61.33;102499.31;6195482;23;20375;-67
2022/03/06 07:02:08;;;;;;;20.38;13.18;;;;;;;2.22;61.25;102503.59;6197385;23;20462;-67
2022/03/06 07:04:33;;;;;;;23.58;14.45;;;;;;;2.29;61.04;102498.81;6196830;23;20251;-66
2022/03/06 07:06:58;;;;;;;19.35;12.40;;;;;;;2.36;61.05;102493.25;6194428;23;20011;-67
2022/03/06 07:09:23;;;;;;;21.67;12.80;;;;;;;2.53;60.91;102508.38;6197245;23;20004;-67
2022/03/06 07:11:49;;;;;;;24.13;13.68;;;;;;;2.73;60.36;102512.34;6197454;23;20004;-66
2022/03/06 07:14:14;;;;;;;21.40;13.10;;;;;;;2.96;59.91;102516.56;6196700;23;20044;-66
2022/03/06 07:16:41;;;;;;;23.02;13.15;;;;;;;3.08;59.79;102519.06;6198041;23;20028;-66
2022/03/06 07:19:07;;;;;;;20.90;12.73;;;;;;;3.12;59.38;102511.56;6196019;23;20075;-67
2022/03/06 07:21:32;;;;;;;20.00;12.55;;;;;;;3.25;59.48;102511.59;6196924;23;20035;-66
2022/03/06 07:24:05;;;;;;;19.05;12.40;;;;;;;3.33;58.84;102517.31;6196814;23;20205;-67
2022/03/06 07:26:30;;;;;;;20.75;12.50;;;;;;;3.49;58.62;102522.75;6198740;23;20044;-67
2022/03/06 07:28:55;;;;;;;19.52;12.65;;;;;;;3.53;57.81;102522.97;6197704;23;20177;-67
2022/03/06 07:31:21;;;;;;;18.15;12.30;;;;;;;3.64;58.17;102533.34;6197558;23;20035;-66
2022/03/06 07:33:47;;;;;;;20.05;13.15;;;;;;;3.71;57.58;102532.00;6198578;23;20008;-66
2022/03/06 07:36:13;;;;;;;18.73;12.35;;;;;;;3.85;57.86;102525.97;6198102;23;20004;-66
2022/03/06 07:38:38;;;;;;;21.17;12.45;;;;;;;3.94;57.01;102536.13;6199441;23;20367;-67
2022/03/06 07:41:04;;;;;;;21.70;12.88;;;;;;;4.10;57.11;102538.91;6197504;23;20470;-67
2022/03/06 07:43:29;;;;;;;19.60;13.02;;;;;;;4.20;56.95;102543.94;6195440;23;20020;-66
2022/03/06 07:45:55;;;;;;;19.42;12.23;;;;;;;4.31;56.18;102543.72;6196406;23;20745;-67
2022/03/06 07:48:21;;;;;;;21.17;12.25;;;;;;;4.41;56.52;102540.84;6197346;23;20009;-65
2022/03/06 07:50:51;;;;;;;19.88;12.70;;;;;;;4.58;55.88;102553.28;6198403;23;20085;-66
2022/03/06 07:53:17;;;;;;;20.17;13.32;;;;;;;4.78;55.83;102554.53;6196141;23;20240;-66
2022/03/06 07:55:43;;;;;;;22.13;12.88;;;;;;;4.81;54.41;102548.59;6196312;23;20478;-67
2022/03/06 07:58:08;;;;;;;19.48;12.68;;;;;;;4.93;55.46;102565.06;6197204;23;20348;-67
2022/03/06 08:00:33;;;;;;;22.67;13.23;;;;;;;4.91;55.13;102561.44;6198160;23;20012;-68
2022/03/06 08:02:59;;;;;;;20.98;13.32;;;;;;;5.14;55.09;102565.44;6199471;23;20000;-68
2022/03/06 08:05:24;;;;;;;19.83;13.02;;;;;;;5.29;54.22;102563.75;6198585;23;20449;-66
2022/03/06 08:07:49;;;;;;;21.90;13.48;;;;;;;5.42;53.60;102570.63;6200350;23;20004;-67
2022/03/06 08:10:15;;;;;;;20.20;13.57;;;;;;;5.56;53.28;102568.81;6198685;23;20102;-67
2022/03/06 08:12:41;;;;;;;23.38;15.18;;;;;;;5.77;52.33;102572.69;6198472;23;20083;-67
2022/03/06 08:15:08;;;;;;;22.10;13.52;;;;;;;6.05;51.93;102575.22;6197911;23;20005;-67
2022/03/06 08:17:34;;;;;;;19.50;12.52;;;;;;;6.25;50.97;102576.31;6198629;23;20111;-67
2022/03/06 08:20:01;;;;;;;18.67;12.60;;;;;;;6.46;51.11;102579.25;6197642;23;20087;-67
2022/03/06 08:22:26;;;;;;;18.13;12.05;;;;;;;6.65;50.71;102573.28;6193847;23;20008;-67
2022/03/06 08:24:54;;;;;;;20.05;12.68;;;;;;;6.85;49.26;102582.22;6196704;23;20015;-67
2022/03/06 08:27:19;;;;;;;17.52;11.63;;;;;;;6.85;50.37;102579.59;6198347;23;20005;-67
2022/03/06 08:29:44;;;;;;;17.88;12.57;;;;;;;6.89;50.14;102581.56;6198399;23;20005;-67
2022/03/06 08:32:10;;;;;;;15.90;11.07;;;;;;;7.18;49.04;102578.75;6196489;23;20039;-67
2022/03/06 08:34:35;;;;;;;18.00;11.35;;;;;;;7.49;49.56;102577.72;6198140;23;20004;-67
2022/03/06 08:37:01;;;;;;;18.88;11.55;;;;;;;7.54;47.35;102592.03;6197792;23;20000;-67
2022/03/06 08:39:26;;;;;;;14.50;10.60;;;;;;;7.73;47.19;102585.97;6195905;23;20611;-67
2022/03/06 08:41:52;;;;;;;19.90;11.10;;;;;;;7.79;47.53;102588.88;6197778;23;20011;-67
2022/03/06 08:44:17;;;;;;;16.13;10.98;;;;;;;7.92;48.08;102598.28;6197543;23;20183;-68
2022/03/06 08:46:42;;;;;;;14.98;11.00;;;;;;;8.12;45.70;102602.81;6199129;23;20016;-67
2022/03/06 08:49:08;;;;;;;15.70;11.50;;;;;;;8.36;46.01;102596.94;6197572;23;20324;-67
2022/03/06 08:51:35;;;;;;;19.23;11.52;;;;;;;8.30;44.69;102602.78;6198011;23;20226;-67
2022/03/06 08:54:00;;;;;;;23.70;13.05;;;;;;;8.51;45.86;102597.69;6197638;23;20012;-67
2022/03/06 08:56:26;;;;;;;18.38;11.40;;;;;;;8.60;44.25;102594.59;6199467;23;20331;-67
2022/03/06 08:58:51;;;;;;;16.23;11.02;;;;;;;8.60;44.11;102590.22;6197109;23;20156;-68
2022/03/06 09:01:17;;;;;;;18.17;12.25;;;;;;;8.71;43.60;102590.72;6198794;23;20075;-67
2022/03/06 09:03:42;;;;;;;19.27;12.48;;;;;;;8.80;44.73;102588.50;6198361;23;20005;-67
2022/03/06 09:06:07;;;;;;;21.17;13.13;;;;;;;9.02;43.52;102600.94;6199581;23;20078;-67
2022/03/06 09:08:33;;;;;;;24.58;15.15;;;;;;;9.42;44.08;102593.06;6197734;23;20236;-68
2022/03/06 09:11:01;;;;;;;20.92;13.65;;;;;;;9.59;43.12;102598.16;6199233;23;20462;-68
2022/03/06 09:13:26;;;;;;;18.15;11.80;;;;;;;9.78;42.02;102604.28;6197454;23;20095;-68
2022/03/06 09:15:52;;;;;;;17.13;11.43;;;;;;;9.72;42.68;102598.75;6196730;23;20009;-67
2022/03/06 09:18:17;;;;;;;17.65;12.18;;;;;;;9.79;41.69;102595.50;6197780;23;20005;-68
2022/03/06 09:20:48;;;;;;;16.08;11.20;;;;;;;9.97;41.73;102597.13;6197049;23;20013;-68
2022/03/06 09:23:13;;;;;;;20.55;11.25;;;;;;;10.13;41.65;102591.63;6197380;23;20068;-68
2022/03/06 09:25:38;;;;;;;18.27;12.93;;;;;;;10.48;41.53;102598.34;6197024;23;20035;-68
2022/03/06 09:28:04;;;;;;;16.40;11.45;;;;;;;10.70;39.97;102596.53;6197907;23;20160;-68
2022/03/06 09:30:30;;;;;;;18.08;11.77;;;;;;;10.98;40.18;102598.47;6196940;23;20008;-68
2022/03/06 09:32:56;;;;;;;15.40;11.30;;;;;;;11.33;39.22;102594.47;6195425;23;20256;-68
2022/03/06 09:35:21;;;;;;;15.95;11.15;;;;;;;11.42;38.37;102591.25;6195394;23;20897;-67
2022/03/06 09:37:47;;;;;;;26.90;15.93;;;;;;;11.65;38.29;102597.34;6197438;23;20634;-68
2022/03/06 09:40:12;;;;;;;15.20;10.90;;;;;;;11.93;38.12;102596.56;6197189;23;20015;-69
2022/03/06 09:42:39;;;;;;;17.80;11.27;;;;;;;12.17;37.03;102592.06;6197883;23;20398;-68
2022/03/06 09:45:08;;;;;;;17.45;11.85;;;;;;;12.35;36.42;102593.50;6197164;23;20023;-65
2022/03/06 09:47:34;;;;;;;25.55;15.30;;;;;;;12.68;36.63;102585.69;6197926;23;20468;-66
2022/03/06 09:50:01;;;;;;;23.08;13.98;;;;;;;12.66;34.79;102588.28;6196972;23;20009;-66
2022/03/06 09:52:27;;;;;;;19.40;13.00;;;;;;;12.84;35.75;102587.03;6199168;23;20005;-66
2022/03/06 09:54:52;;;;;;;34.20;19.15;;;;;;;12.83;34.60;102585.25;6198312;23;20019;-66
2022/03/06 09:57:19;;;;;;;22.73;13.38;;;;;;;13.03;35.14;102581.41;6196589;23;20005;-66
2022/03/06 09:59:45;;;;;;;21.63;13.88;;;;;;;13.44;34.64;102592.31;6196786;23;20502;-65
2022/03/06 10:02:11;;;;;;;16.98;13.02;;;;;;;13.46;33.45;102582.63;6194734;23;20091;-66
2022/03/06 10:04:37;;;;;;;18.08;12.82;;;;;;;13.59;33.89;102589.16;6194596;23;20004;-66
2022/03/06 10:07:04;;;;;;;17.73;12.30;;;;;;;13.51;33.99;102588.97;6196906;23;20005;-66
2022/03/06 10:09:42;;;;;;;16.17;11.52;;;;;;;13.27;34.05;102589.19;6197306;23;20012;-65
2022/03/06 10:12:29;;;;;;;13.88;10.70;;;;;;;13.21;35.19;102589.00;6195670;23;20071;-66
2022/03/06 10:15:04;;;;;;;15.52;11.18;;;;;;;13.02;35.04;102583.19;6197575;23;20084;-66
2022/03/06 10:17:31;;;;;;;16.52;11.93;;;;;;;13.17;34.86;102588.00;6195672;23;20419;-66
2022/03/06 10:20:03;;;;;;;17.80;11.90;;;;;;;13.38;34.31;102592.16;6196486;23;20263;-66
2022/03/06 10:22:47;;;;;;;17.63;11.13;;;;;;;13.31;34.97;102599.03;6197801;23;20091;-68
2022/03/06 10:25:19;;;;;;;17.15;11.35;;;;;;;13.53;33.80;102597.84;6198869;23;20067;-67
2022/03/06 10:27:57;;;;;;;17.42;11.85;;;;;;;13.89;34.12;102586.41;6201027;23;20000;-67
2022/03/06 10:30:42;;;;;;;15.60;11.40;;;;;;;14.41;33.50;102587.63;6198843;23;20009;-67
2022/03/06 10:33:11;;;;;;;14.95;10.23;;;;;;;14.27;31.87;102592.66;6199948;23;20000;-67
2022/03/06 10:35:41;;;;;;;11.27;8.85;;;;;;;14.10;31.78;102591.34;6199725;23;20283;-66
2022/03/06 10:38:27;;;;;;;12.75;9.20;;;;;;;14.16;32.30;102597.69;6199313;23;20036;-67
2022/03/06 10:40:55;;;;;;;12.40;9.35;;;;;;;14.15;31.36;102598.56;6197525;23;20016;-66
2022/03/06 10:43:21;;;;;;;13.93;10.13;;;;;;;14.07;31.75;102594.81;6200327;23;20024;-69
2022/03/06 10:45:48;;;;;;;14.23;9.48;;;;;;;14.19;32.05;102600.44;6199997;23;20098;-67
2022/03/06 10:48:14;;;;;;;12.05;9.15;;;;;;;13.93;31.78;102589.16;6200223;23;20075;-67
2022/03/06 10:50:39;;;;;;;13.10;9.18;;;;;;;13.88;31.07;102589.94;6199743;23;20008;-67
2022/03/06 10:53:22;;;;;;;12.20;8.82;;;;;;;14.20;31.57;102585.38;6199180;23;20008;-66
2022/03/06 10:55:54;;;;;;;10.95;8.75;;;;;;;14.02;31.32;102584.06;6199584;23;20360;-66
2022/03/06 10:58:21;;;;;;;11.27;8.88;;;;;;;13.95;31.09;102584.78;6197925;23;20013;-69
2022/03/06 11:00:48;;;;;;;13.80;9.75;;;;;;;13.82;31.86;102585.34;6198992;23;20108;-66
2022/03/06 11:03:14;;;;;;;15.25;10.48;;;;;;;13.74;31.95;102592.22;6198473;23;20005;-65
2022/03/06 11:05:44;;;;;;;14.43;9.95;;;;;;;13.79;31.77;102593.25;6199079;23;20040;-66
2022/03/06 11:08:17;;;;;;;15.07;11.05;;;;;;;14.07;31.83;102592.16;6199800;23;20585;-66
2022/03/06 11:10:43;;;;;;;;;;;;;;;14.46;32.46;102588.63;6198696;23;20112;-67
2022/03/06 11:13:13;;;;;;;12.35;9.45;;;;;;;14.62;31.08;102587.25;6199328;23;19978;-67